createdAt,value
2017-05-27T00:04:49.076Z,1013.1
2017-05-27T00:15:03.181Z,1013
2017-05-27T00:25:17.856Z,1013
2017-05-27T00:35:33.182Z,1013
2017-05-27T00:45:47.967Z,1012.8
2017-05-27T00:56:01.838Z,1012.9
2017-05-27T01:06:16.708Z,1012.8
2017-05-27T01:16:30.713Z,1012.8
2017-05-27T01:26:44.525Z,1012.7
2017-05-27T01:36:59.663Z,1012.6
2017-05-27T01:47:14.073Z,1012.6
2017-05-27T01:57:29.296Z,1012.7
2017-05-27T02:07:43.866Z,1012.7
2017-05-27T02:17:59.300Z,1012.9
2017-05-27T02:28:14.781Z,1012.9
2017-05-27T02:38:29.582Z,1012.9
2017-05-27T02:48:44.380Z,1012.9
2017-05-27T02:58:58.465Z,1013
2017-05-27T03:09:13.076Z,1013.1
2017-05-27T03:19:27.887Z,1013.1
2017-05-27T03:29:41.828Z,1013
2017-05-27T03:39:55.734Z,1013.1
2017-05-27T03:50:10.605Z,1013
2017-05-27T04:00:24.523Z,1013
2017-05-27T04:10:38.544Z,1013.1
2017-05-27T04:20:52.330Z,1013.2
2017-05-27T04:31:07.299Z,1013.3
2017-05-27T04:41:21.826Z,1013.4
2017-05-27T04:51:36.862Z,1013.4
2017-05-27T05:01:52.410Z,1013.4
2017-05-27T05:12:06.573Z,1013.4
2017-05-27T05:22:21.718Z,1013.5
2017-05-27T05:32:35.810Z,1013.4
2017-05-27T05:42:49.649Z,1013.4
2017-05-27T05:53:04.443Z,1013.4
2017-05-27T06:03:18.654Z,1013.5
2017-05-27T06:13:33.558Z,1013.5
2017-05-27T06:23:48.826Z,1013.4
2017-05-27T06:34:03.278Z,1013.5
2017-05-27T06:44:18.007Z,1013.5
2017-05-27T06:54:33.677Z,1013.4
2017-05-27T07:04:48.598Z,1013.4
2017-05-27T07:15:03.971Z,1013.3
2017-05-27T07:25:19.252Z,1013.3
2017-05-27T07:35:33.542Z,1013.3
2017-05-27T07:45:49.098Z,1013.2
2017-05-27T07:56:03.512Z,1013.3
2017-05-27T08:06:18.719Z,1013.2
2017-05-27T08:16:35.714Z,1013.2
2017-05-27T08:26:48.290Z,1013.2
2017-05-27T08:37:02.639Z,1013.2
2017-05-27T08:47:17.338Z,1013
2017-05-27T08:57:32.105Z,1013
2017-05-27T09:07:46.238Z,1012.9
2017-05-27T09:18:00.946Z,1012.9
2017-05-27T09:28:15.068Z,1012.8
2017-05-27T09:38:29.402Z,1012.8
2017-05-27T09:48:45.377Z,1012.6
2017-05-27T09:59:00.179Z,1012.5
2017-05-27T10:09:15.065Z,1012.5
2017-05-27T10:19:29.123Z,1012.4
2017-05-27T10:29:43.646Z,1012.4
2017-05-27T10:39:58.247Z,1012.1
2017-05-27T10:50:13.999Z,1012
2017-05-27T11:00:29.548Z,1011.9
2017-05-27T11:10:44.070Z,1011.9
2017-05-27T11:20:59.258Z,1011.8
2017-05-27T11:31:13.419Z,1011.6
2017-05-27T11:41:27.532Z,1011.6
2017-05-27T11:51:41.955Z,1011.6
2017-05-27T12:01:56.843Z,1011.5
2017-05-27T12:12:11.718Z,1011.5
2017-05-27T12:22:27.716Z,1011.7
2017-05-27T12:32:42.105Z,1011.8
2017-05-27T12:42:58.105Z,1011.7
2017-05-27T12:53:13.224Z,1011.8
2017-05-27T13:03:28.210Z,1012
2017-05-27T13:13:44.193Z,1012
2017-05-27T13:23:59.560Z,1012
2017-05-27T13:34:15.353Z,1012.6
2017-05-27T13:44:30.782Z,1011.9
2017-05-27T13:54:46.433Z,1011.7
2017-05-27T14:05:01.234Z,1010.6
2017-05-27T14:15:16.422Z,1010.5
2017-05-27T14:25:31.118Z,1010.4
2017-05-27T14:35:45.911Z,1010.2
2017-05-27T14:46:01.204Z,1010.2
2017-05-27T14:56:17.078Z,1010
2017-05-27T15:06:32.431Z,1010
2017-05-27T15:16:48.356Z,1009.9
2017-05-27T15:27:03.842Z,1009.9
2017-05-27T15:37:18.564Z,1009.8
2017-05-27T15:47:33.532Z,1009.7
2017-05-27T15:57:47.981Z,1009.6
2017-05-27T16:08:01.985Z,1009.6
2017-05-27T16:18:16.801Z,1009.6
2017-05-27T16:28:31.552Z,1009.7
2017-05-27T16:38:47.113Z,1009.7
2017-05-27T16:49:01.900Z,1009.5
2017-05-27T16:59:17.638Z,1009.5
2017-05-27T17:09:32.048Z,1009.3
2017-05-27T17:19:46.317Z,1009.3
2017-05-27T17:30:00.558Z,1009.3
2017-05-27T17:40:15.915Z,1009.3
2017-05-27T17:50:31.313Z,1009.3
2017-05-27T18:00:47.138Z,1009.2
2017-05-27T18:11:01.740Z,1009.2
2017-05-27T18:21:15.975Z,1009.3
2017-05-27T18:31:30.859Z,1009.3
2017-05-27T18:41:44.971Z,1009.3
2017-05-27T18:52:00.745Z,1009.4
2017-05-27T19:02:16.305Z,1009.4
2017-05-27T19:12:30.928Z,1009.4
2017-05-27T19:22:44.784Z,1009.5
2017-05-27T19:32:59.068Z,1009.6
2017-05-27T19:43:13.882Z,1009.7
2017-05-27T19:53:28.844Z,1009.9
2017-05-27T20:03:43.500Z,1009.9
2017-05-27T20:13:58.531Z,1010
2017-05-27T20:24:13.055Z,1010
2017-05-27T20:34:27.358Z,1010.1
2017-05-27T20:44:42.541Z,1010.1
2017-05-27T20:54:57.393Z,1010.1
2017-05-27T21:05:11.992Z,1010.3
2017-05-27T21:15:27.191Z,1010.3
2017-05-27T21:25:42.139Z,1010.4
2017-05-27T21:35:56.289Z,1010.3
2017-05-27T21:46:11.091Z,1010.3
2017-05-27T21:56:26.612Z,1010.2
2017-05-27T22:06:42.263Z,1010.2
2017-05-27T22:16:58.029Z,1010.1
2017-05-27T22:27:13.457Z,1010.1
2017-05-27T22:37:28.622Z,1010.1
2017-05-27T22:47:43.306Z,1010.1
2017-05-27T22:57:57.155Z,1010.1
2017-05-27T23:08:11.402Z,1010.2
2017-05-27T23:18:25.222Z,1010.1
2017-05-27T23:28:39.869Z,1010.2
2017-05-27T23:38:54.519Z,1010.2
2017-05-27T23:49:08.675Z,1010.3
2017-05-27T23:59:22.621Z,1010.3
